Aérodrome :
LOGIN :

S'inscrire | Disclaimer

   EN    FR    IT 

 










Légende :    VFR   VFR Marginal   IFR   IFR Intensif   IFR Très Intensif
Visi : 
Plafond : 
>= 8 km
>= 3000ft
5 à 8 km
1000 à 3000 ft
1500m à 5 km
500 à 1000 ft
800 à 1500m
200 à 500 ft
< 800m
< 200 ft
Symboles :   Orages  Brouillard  Fortes neiges  Fortes précipitations  Vent > 20 kt
SIGMETs :   Divers  Orages  Givrage  Turbulence  Onde Orograph.  Cendres Volcan.







- Altitude de l'aérodrome : 157 ft
- Code IATA : LIL
- Voir les cartes d'approche


LFQQ - Lille Lesquin

DERNIER METAR :
  • 210600Z AUTO 33009KT 3700 BR BKN005 OVC009 11/11 Q1015 TEMPO VV/// BECMG 9999 NSW

METARs EXPIRÉS :
  • 210530Z AUTO 31011KT 2900 BR OVC003 10/10 Q1015 TEMPO VV/// BECMG 9999 NSW
  • 210500Z AUTO 32009KT 1700 1000 R26/P2000 R08/1500N BR OVC002 10/10 Q1015 TEMPO VV/// BECMG 9999 NSW
  • 210430Z AUTO 32007KT 290V350 1800 BR VV/// 10/10 Q1015 BECMG 9999 NSW SCT030
  • 210400Z AUTO 33004KT 1100 0700 R26/P2000 R08/1000D BCFG VV/// 10/10 Q1014 TEMPO 0500 FG

TAF TAF LFQQ
Valide du 21 à 06h jusqu'au 22 à 12h UTC


210500Z 2106/2212 31008KT 2000 BR OVC006
TEMPO 2106/2107 0600 FG VV///
BECMG 2107/2109 9999 NSW SCT030
PROB30 2122/2206 3000 BR
ATIS : +33 3 20 16 19 54
Pas de NOTAMs connus pour ce terrain.



MET'MAP, la Météo Aéronautique d'un coup d'oeil ! - Copyright ORBIFLY Décembre 2007 - Disclaimer

ORBIFLY MET'MAP TEAM :

Programmation & Développement : Alexandra Zaïnal
Conception & Développement : Baudouin d'Aumeries
Co-Programmation & Développement : Marc-Olivier Méhu
Soutien technique & logistique : Manuel Goepfert

Contact : metmap@orbifly.com




SOURCES & CREDITS :

   NOAA